Time,TemperatureF,DewpointF,PressureIn,WindDirection,WindDirectionDegrees,WindSpeedMPH,WindSpeedGustMPH,Humidity,HourlyPrecipIn,Conditions,Clouds,dailyrainin,SoftwareType,DateUTC
2013-02-09 00:01:00,26.0,26.0,-100.00,SSW,212,6.0,11.0,99,-99.99,,,-99.99,,2013-02-09 08:01:00,
2013-02-09 00:11:00,26.0,26.0,-100.00,SW,215,5.0,11.0,99,-99.99,,,-99.99,,2013-02-09 08:11:00,
2013-02-09 00:21:00,26.0,26.0,-100.00,SW,224,7.0,12.0,99,-99.99,,,-99.99,,2013-02-09 08:21:00,
2013-02-09 00:31:00,26.0,26.0,-100.00,SSW,210,6.0,12.0,99,-99.99,,,-99.99,,2013-02-09 08:31:00,
2013-02-09 00:41:00,27.0,27.0,-100.00,SSW,202,11.0,17.0,99,-99.99,,,-99.99,,2013-02-09 08:41:00,
2013-02-09 00:52:00,26.0,26.0,-100.00,SSW,200,10.0,17.0,99,-99.99,,,-99.99,,2013-02-09 08:52:00,
2013-02-09 01:02:00,26.0,26.0,-100.00,SSW,201,7.0,16.0,99,-99.99,,,-99.99,,2013-02-09 09:02:00,
2013-02-09 01:11:00,26.0,26.0,-100.00,SW,235,4.0,11.0,99,-99.99,,,-99.99,,2013-02-09 09:11:00,
2013-02-09 01:21:00,26.0,26.0,-100.00,SW,226,4.0,9.0,99,-99.99,,,-99.99,,2013-02-09 09:21:00,
2013-02-09 01:31:00,26.0,26.0,-100.00,SW,226,4.0,10.0,99,-99.99,,,-99.99,,2013-02-09 09:31:00,
2013-02-09 01:41:00,26.0,26.0,-100.00,SSW,201,4.0,11.0,99,-99.99,,,-99.99,,2013-02-09 09:41:00,
2013-02-09 01:51:00,26.0,26.0,-100.00,SW,235,6.0,13.0,99,-99.99,,,-99.99,,2013-02-09 09:51:00,
2013-02-09 02:01:00,26.0,26.0,-100.00,WSW,248,3.0,7.0,99,-99.99,,,-99.99,,2013-02-09 10:01:00,
2013-02-09 02:11:00,26.0,26.0,-100.00,SW,223,5.0,11.0,99,-99.99,,,-99.99,,2013-02-09 10:11:00,
2013-02-09 02:21:00,26.0,26.0,-100.00,SW,233,3.0,8.0,99,-99.99,,,-99.99,,2013-02-09 10:21:00,
2013-02-09 02:31:00,26.0,26.0,-100.00,SW,229,3.0,8.0,99,-99.99,,,-99.99,,2013-02-09 10:31:00,
2013-02-09 02:41:00,26.0,26.0,-100.00,SW,235,3.0,7.0,99,-99.99,,,-99.99,,2013-02-09 10:41:00,
2013-02-09 02:51:00,26.0,26.0,-100.00,WSW,247,3.0,7.0,99,-99.99,,,-99.99,,2013-02-09 10:51:00,
2013-02-09 03:01:00,26.0,26.0,-100.00,West,270,3.0,11.0,99,-99.99,,,-99.99,,2013-02-09 11:01:00,
2013-02-09 03:11:00,26.0,26.0,-100.00,West,272,2.0,13.0,99,-99.99,,,-99.99,,2013-02-09 11:11:00,
2013-02-09 03:21:00,26.0,26.0,-100.00,WSW,255,3.0,12.0,99,-99.99,,,-99.99,,2013-02-09 11:21:00,
2013-02-09 03:31:00,26.0,26.0,-100.00,NW,306,5.0,11.0,99,-99.99,,,-99.99,,2013-02-09 11:31:00,
2013-02-09 03:41:00,26.0,26.0,-100.00,WNW,301,5.0,15.0,99,-99.99,,,-99.99,,2013-02-09 11:41:00,
2013-02-09 03:52:00,26.0,26.0,-100.00,West,261,2.0,9.0,99,-99.99,,,-99.99,,2013-02-09 11:52:00,
2013-02-09 04:02:00,26.0,26.0,-100.00,West,261,2.0,9.0,99,-99.99,,,-99.99,,2013-02-09 12:02:00,
2013-02-09 04:11:00,26.0,26.0,-100.00,WSW,243,3.0,9.0,99,-99.99,,,-99.99,,2013-02-09 12:11:00,
2013-02-09 04:21:00,26.0,26.0,-100.00,West,260,3.0,12.0,99,-99.99,,,-99.99,,2013-02-09 12:21:00,
2013-02-09 04:32:00,26.0,26.0,-100.00,West,277,3.0,16.0,99,-99.99,,,-99.99,,2013-02-09 12:32:00,
2013-02-09 04:42:00,26.0,26.0,-100.00,NW,307,3.0,11.0,99,-99.99,,,-99.99,,2013-02-09 12:42:00,
2013-02-09 04:52:00,26.0,26.0,-100.00,WNW,298,5.0,11.0,99,-99.99,,,-99.99,,2013-02-09 12:52:00,
2013-02-09 05:02:00,26.0,26.0,-100.00,WNW,290,3.0,11.0,99,-99.99,,,-99.99,,2013-02-09 13:02:00,
2013-02-09 05:11:00,26.0,26.0,-100.00,NW,310,5.0,13.0,99,-99.99,,,-99.99,,2013-02-09 13:11:00,
2013-02-09 05:21:00,26.0,26.0,-100.00,WNW,292,5.0,11.0,99,-99.99,,,-99.99,,2013-02-09 13:21:00,
2013-02-09 05:31:00,26.0,26.0,-100.00,WNW,297,2.0,7.0,99,-99.99,,,-99.99,,2013-02-09 13:31:00,
2013-02-09 05:42:00,26.0,26.0,-100.00,WNW,282,5.0,11.0,99,-99.99,,,-99.99,,2013-02-09 13:42:00,
2013-02-09 05:51:00,26.0,26.0,-100.00,WNW,287,5.0,10.0,99,-99.99,,,-99.99,,2013-02-09 13:51:00,
2013-02-09 06:01:00,26.0,26.0,-100.00,NW,313,3.0,10.0,99,-99.99,,,-99.99,,2013-02-09 14:01:00,
2013-02-09 06:11:00,26.0,26.0,-100.00,NW,305,4.0,12.0,99,-99.99,,,-99.99,,2013-02-09 14:11:00,
2013-02-09 06:21:00,26.0,26.0,-100.00,NE,56,1.0,4.0,99,-99.99,,,-99.99,,2013-02-09 14:21:00,
2013-02-09 06:31:00,26.0,26.0,-100.00,ENE,64,2.0,6.0,99,-99.99,,,-99.99,,2013-02-09 14:31:00,
2013-02-09 06:41:00,26.0,26.0,-100.00,WNW,297,2.0,6.0,99,-99.99,,,-99.99,,2013-02-09 14:41:00,
2013-02-09 06:52:00,26.0,26.0,-100.00,SW,230,2.0,6.0,99,-99.99,,,-99.99,,2013-02-09 14:52:00,
2013-02-09 07:01:00,26.0,26.0,-100.00,NW,306,3.0,8.0,99,-99.99,,,-99.99,,2013-02-09 15:01:00,
2013-02-09 07:11:00,26.0,26.0,-100.00,SW,236,3.0,6.0,99,-99.99,,,-99.99,,2013-02-09 15:11:00,
2013-02-09 07:21:00,26.0,26.0,-100.00,SW,226,3.0,8.0,99,-99.99,,,-99.99,,2013-02-09 15:21:00,
2013-02-09 07:31:00,26.0,26.0,-100.00,WSW,243,3.0,8.0,99,-99.99,,,-99.99,,2013-02-09 15:31:00,
2013-02-09 07:41:00,26.0,26.0,-100.00,SW,229,4.0,8.0,99,-99.99,,,-99.99,,2013-02-09 15:41:00,
2013-02-09 07:51:00,26.0,26.0,-100.00,SW,233,5.0,12.0,99,-99.99,,,-99.99,,2013-02-09 15:51:00,
2013-02-09 08:01:00,26.0,26.0,-100.00,SW,229,5.0,11.0,99,-99.99,,,-99.99,,2013-02-09 16:01:00,
2013-02-09 08:11:00,26.0,26.0,-100.00,WSW,250,4.0,11.0,99,-99.99,,,-99.99,,2013-02-09 16:11:00,
2013-02-09 08:21:00,26.0,26.0,-100.00,WSW,246,4.0,8.0,99,-99.99,,,-99.99,,2013-02-09 16:21:00,
2013-02-09 08:31:00,26.0,26.0,-100.00,SW,227,5.0,10.0,99,-99.99,,,-99.99,,2013-02-09 16:31:00,
2013-02-09 08:41:00,26.0,26.0,-100.00,WSW,238,4.0,8.0,99,-99.99,,,-99.99,,2013-02-09 16:41:00,
2013-02-09 08:51:00,27.0,27.0,-100.00,SW,226,3.0,9.0,99,-99.99,,,-99.99,,2013-02-09 16:51:00,
2013-02-09 09:01:00,27.0,27.0,-100.00,WSW,250,3.0,8.0,99,-99.99,,,-99.99,,2013-02-09 17:01:00,
2013-02-09 09:11:00,27.0,27.0,-100.00,WSW,240,3.0,9.0,99,-99.99,,,-99.99,,2013-02-09 17:11:00,
2013-02-09 09:21:00,27.0,27.0,-100.00,SW,229,4.0,10.0,99,-99.99,,,-99.99,,2013-02-09 17:21:00,
2013-02-09 09:31:00,27.0,27.0,-100.00,SW,219,4.0,12.0,99,-99.99,,,-99.99,,2013-02-09 17:31:00,
2013-02-09 09:41:00,27.0,27.0,-100.00,SW,231,5.0,12.0,99,-99.99,,,-99.99,,2013-02-09 17:41:00,
2013-02-09 09:52:00,27.0,27.0,-100.00,SW,219,5.0,10.0,99,-99.99,,,-99.99,,2013-02-09 17:52:00,
2013-02-09 10:01:00,27.0,27.0,-100.00,WSW,237,4.0,8.0,99,-99.99,,,-99.99,,2013-02-09 18:01:00,
2013-02-09 10:11:00,27.0,27.0,-100.00,WSW,238,4.0,9.0,99,-99.99,,,-99.99,,2013-02-09 18:11:00,
2013-02-09 10:23:00,28.0,28.0,-100.00,SW,231,4.0,8.0,99,-99.99,,,-99.99,,2013-02-09 18:23:00,
2013-02-09 10:31:00,28.0,28.0,-100.00,SW,222,3.0,8.0,99,-99.99,,,-99.99,,2013-02-09 18:31:00,
2013-02-09 10:41:00,29.0,29.0,-100.00,SSW,211,4.0,10.0,99,-99.99,,,-99.99,,2013-02-09 18:41:00,
2013-02-09 10:51:00,29.0,29.0,-100.00,SW,234,5.0,13.0,99,-99.99,,,-99.99,,2013-02-09 18:51:00,
2013-02-09 11:01:00,28.0,28.0,-100.00,SW,231,5.0,12.0,99,-99.99,,,-99.99,,2013-02-09 19:01:00,
2013-02-09 11:11:00,29.0,29.0,-100.00,WSW,241,5.0,12.0,99,-99.99,,,-99.99,,2013-02-09 19:11:00,
2013-02-09 11:22:00,29.0,29.0,-100.00,WSW,242,3.0,9.0,99,-99.99,,,-99.99,,2013-02-09 19:22:00,
2013-02-09 11:31:00,29.0,29.0,-100.00,West,269,3.0,9.0,99,-99.99,,,-99.99,,2013-02-09 19:31:00,
2013-02-09 11:41:00,31.0,31.0,-100.00,WSW,255,3.0,6.0,99,-99.99,,,-99.99,,2013-02-09 19:41:00,
2013-02-09 11:52:00,30.0,30.0,-100.00,WNW,292,3.0,8.0,99,-99.99,,,-99.99,,2013-02-09 19:52:00,
2013-02-09 12:01:00,31.0,31.0,-100.00,SE,139,2.0,5.0,99,-99.99,,,-99.99,,2013-02-09 20:01:00,
2013-02-09 12:11:00,31.0,31.0,-100.00,SSW,199,4.0,11.0,99,-99.99,,,-99.99,,2013-02-09 20:11:00,
2013-02-09 12:21:00,30.0,30.0,-100.00,South,178,2.0,5.0,99,-99.99,,,-99.99,,2013-02-09 20:21:00,
2013-02-09 12:31:00,30.0,30.0,-100.00,SW,227,2.0,6.0,99,-99.99,,,-99.99,,2013-02-09 20:31:00,
2013-02-09 12:41:00,30.0,30.0,-100.00,ESE,123,2.0,4.0,99,-99.99,,,-99.99,,2013-02-09 20:41:00,
2013-02-09 12:52:00,30.0,30.0,-100.00,South,185,3.0,6.0,99,-99.99,,,-99.99,,2013-02-09 20:52:00,
2013-02-09 13:01:00,29.0,29.0,-100.00,South,174,5.0,9.0,99,-99.99,,,-99.99,,2013-02-09 21:01:00,
2013-02-09 13:11:00,29.0,29.0,-100.00,South,172,4.0,8.0,99,-99.99,,,-99.99,,2013-02-09 21:11:00,
2013-02-09 13:21:00,30.0,30.0,-100.00,SE,128,3.0,7.0,100,-99.99,,,-99.99,,2013-02-09 21:21:00,
2013-02-09 13:31:00,30.0,30.0,-100.00,SE,128,3.0,7.0,100,-99.99,,,-99.99,,2013-02-09 21:31:00,
2013-02-09 13:41:00,30.0,30.0,-100.00,SSW,201,5.0,9.0,100,-99.99,,,-99.99,,2013-02-09 21:41:00,
2013-02-09 13:52:00,30.0,30.0,-100.00,SSW,204,6.0,12.0,100,-99.99,,,-99.99,,2013-02-09 21:52:00,
2013-02-09 14:01:00,30.0,30.0,-100.00,SSW,204,6.0,12.0,100,-99.99,,,-99.99,,2013-02-09 22:01:00,
2013-02-09 14:11:00,30.0,30.0,-100.00,SSW,208,5.0,10.0,100,-99.99,,,-99.99,,2013-02-09 22:11:00,
2013-02-09 14:21:00,30.0,30.0,-100.00,SSW,202,8.0,13.0,100,-99.99,,,-99.99,,2013-02-09 22:21:00,
2013-02-09 14:31:00,31.0,31.0,-100.00,SSW,202,5.0,11.0,100,-99.99,,,-99.99,,2013-02-09 22:31:00,
2013-02-09 14:41:00,31.0,31.0,-100.00,SW,225,4.0,9.0,100,-99.99,,,-99.99,,2013-02-09 22:41:00,
2013-02-09 14:51:00,31.0,31.0,-100.00,SSW,212,5.0,14.0,100,-99.99,,,-99.99,,2013-02-09 22:51:00,
2013-02-09 15:01:00,30.0,30.0,-100.00,SSW,204,5.0,10.0,100,-99.99,,,-99.99,,2013-02-09 23:01:00,
2013-02-09 15:11:00,30.0,30.0,-100.00,WSW,239,3.0,7.0,100,-99.99,,,-99.99,,2013-02-09 23:11:00,
2013-02-09 15:21:00,31.0,31.0,-100.00,SW,233,4.0,8.0,100,-99.99,,,-99.99,,2013-02-09 23:21:00,
2013-02-09 15:31:00,30.0,30.0,-100.00,West,274,3.0,7.0,100,-99.99,,,-99.99,,2013-02-09 23:31:00,
2013-02-09 15:41:00,31.0,31.0,-100.00,West,264,4.0,10.0,100,-99.99,,,-99.99,,2013-02-09 23:41:00,
2013-02-09 15:52:00,31.0,31.0,-100.00,WSW,255,5.0,11.0,100,-99.99,,,-99.99,,2013-02-09 23:52:00,
2013-02-09 16:02:00,31.0,31.0,-100.00,West,278,3.0,10.0,100,-99.99,,,-99.99,,2013-02-10 00:02:00,
2013-02-09 16:11:00,31.0,31.0,-100.00,WSW,249,2.0,6.0,100,-99.99,,,-99.99,,2013-02-10 00:11:00,
2013-02-09 16:21:00,31.0,31.0,-100.00,WSW,257,4.0,8.0,100,-99.99,,,-99.99,,2013-02-10 00:21:00,
2013-02-09 16:31:00,31.0,31.0,-100.00,WSW,249,3.0,8.0,100,-99.99,,,-99.99,,2013-02-10 00:31:00,
2013-02-09 16:41:00,31.0,31.0,-100.00,West,272,2.0,6.0,100,-99.99,,,-99.99,,2013-02-10 00:41:00,
2013-02-09 16:51:00,31.0,31.0,-100.00,SW,229,3.0,5.0,100,-99.99,,,-99.99,,2013-02-10 00:51:00,
2013-02-09 17:01:00,31.0,31.0,-100.00,SW,236,3.0,8.0,100,-99.99,,,-99.99,,2013-02-10 01:01:00,
2013-02-09 17:11:00,30.0,30.0,-100.00,West,260,4.0,11.0,100,-99.99,,,-99.99,,2013-02-10 01:11:00,
2013-02-09 17:21:00,30.0,30.0,-100.00,WNW,287,5.0,10.0,100,-99.99,,,-99.99,,2013-02-10 01:21:00,
2013-02-09 17:31:00,30.0,30.0,-100.00,West,271,3.0,12.0,100,-99.99,,,-99.99,,2013-02-10 01:31:00,
2013-02-09 17:41:00,30.0,30.0,-100.00,West,271,3.0,12.0,100,-99.99,,,-99.99,,2013-02-10 01:41:00,
2013-02-09 17:51:00,30.0,30.0,-100.00,SW,236,2.0,5.0,100,-99.99,,,-99.99,,2013-02-10 01:51:00,
2013-02-09 18:01:00,30.0,30.0,-100.00,WNW,286,3.0,9.0,100,-99.99,,,-99.99,,2013-02-10 02:01:00,
2013-02-09 18:11:00,30.0,30.0,-100.00,WSW,248,3.0,7.0,100,-99.99,,,-99.99,,2013-02-10 02:11:00,
2013-02-09 18:22:00,30.0,30.0,-100.00,SW,236,4.0,11.0,100,-99.99,,,-99.99,,2013-02-10 02:22:00,
2013-02-09 18:31:00,30.0,30.0,-100.00,WSW,243,3.0,8.0,100,-99.99,,,-99.99,,2013-02-10 02:31:00,
2013-02-09 18:41:00,30.0,30.0,-100.00,WSW,246,4.0,8.0,100,-99.99,,,-99.99,,2013-02-10 02:41:00,
2013-02-09 18:52:00,29.0,29.0,-100.00,WSW,245,3.0,9.0,100,-99.99,,,-99.99,,2013-02-10 02:52:00,
2013-02-09 19:01:00,29.0,29.0,-100.00,SW,226,3.0,8.0,100,-99.99,,,-99.99,,2013-02-10 03:01:00,
2013-02-09 19:11:00,29.0,29.0,-100.00,WSW,239,3.0,8.0,100,-99.99,,,-99.99,,2013-02-10 03:11:00,
2013-02-09 19:21:00,29.0,29.0,-100.00,SW,226,2.0,6.0,100,-99.99,,,-99.99,,2013-02-10 03:21:00,
2013-02-09 19:31:00,29.0,29.0,-100.00,SW,228,2.0,5.0,100,-99.99,,,-99.99,,2013-02-10 03:31:00,
2013-02-09 19:41:00,28.0,28.0,-100.00,SW,236,2.0,8.0,100,-99.99,,,-99.99,,2013-02-10 03:41:00,
2013-02-09 19:51:00,28.0,28.0,-100.00,WSW,251,2.0,4.0,100,-99.99,,,-99.99,,2013-02-10 03:51:00,
2013-02-09 20:01:00,28.0,28.0,-100.00,SSE,166,2.0,4.0,100,-99.99,,,-99.99,,2013-02-10 04:01:00,
2013-02-09 20:11:00,28.0,28.0,-100.00,NW,313,2.0,5.0,100,-99.99,,,-99.99,,2013-02-10 04:11:00,
2013-02-09 20:21:00,28.0,28.0,-100.00,WNW,282,2.0,4.0,100,-99.99,,,-99.99,,2013-02-10 04:21:00,
2013-02-09 20:31:00,28.0,28.0,-100.00,NW,308,3.0,7.0,100,-99.99,,,-99.99,,2013-02-10 04:31:00,
2013-02-09 20:41:00,27.0,27.0,-100.00,WNW,298,2.0,4.0,100,-99.99,,,-99.99,,2013-02-10 04:41:00,
2013-02-09 20:51:00,27.0,27.0,-100.00,WSW,248,1.0,4.0,99,-99.99,,,-99.99,,2013-02-10 04:51:00,
2013-02-09 21:01:00,27.0,27.0,-100.00,West,267,0.0,2.0,99,-99.99,,,-99.99,,2013-02-10 05:01:00,
2013-02-09 21:11:00,26.0,26.0,-100.00,NNE,23,1.0,3.0,99,-99.99,,,-99.99,,2013-02-10 05:11:00,
2013-02-09 21:22:00,26.0,26.0,-100.00,North,356,2.0,3.0,99,-99.99,,,-99.99,,2013-02-10 05:22:00,
2013-02-09 21:31:00,24.0,24.0,-100.00,ENE,76,1.0,3.0,98,-99.99,,,-99.99,,2013-02-10 05:31:00,
2013-02-09 21:41:00,23.0,22.0,-100.00,South,169,0.0,1.0,97,-99.99,,,-99.99,,2013-02-10 05:41:00,
2013-02-09 21:52:00,22.0,21.0,-100.00,SSW,212,0.0,1.0,97,-99.99,,,-99.99,,2013-02-10 05:52:00,
2013-02-09 22:01:00,21.0,20.0,-100.00,NE,53,1.0,3.0,97,-99.99,,,-99.99,,2013-02-10 06:01:00,
2013-02-09 22:11:00,21.0,20.0,-100.00,East,79,1.0,2.0,97,-99.99,,,-99.99,,2013-02-10 06:11:00,
2013-02-09 22:21:00,21.0,21.0,-100.00,NNE,27,2.0,4.0,98,-99.99,,,-99.99,,2013-02-10 06:21:00,
2013-02-09 22:32:00,23.0,23.0,-100.00,NE,37,2.0,4.0,99,-99.99,,,-99.99,,2013-02-10 06:32:00,
2013-02-09 22:42:00,24.0,24.0,-100.00,North,354,1.0,3.0,99,-99.99,,,-99.99,,2013-02-10 06:42:00,
2013-02-09 22:51:00,25.0,25.0,-100.00,NNW,338,2.0,5.0,99,-99.99,,,-99.99,,2013-02-10 06:51:00,
2013-02-09 23:01:00,26.0,26.0,-100.00,NW,314,2.0,5.0,99,-99.99,,,-99.99,,2013-02-10 07:01:00,
2013-02-09 23:11:00,26.0,26.0,-100.00,NW,310,2.0,5.0,99,-99.99,,,-99.99,,2013-02-10 07:11:00,
2013-02-09 23:21:00,26.0,26.0,-100.00,West,269,3.0,8.0,99,-99.99,,,-99.99,,2013-02-10 07:21:00,
2013-02-09 23:31:00,26.0,26.0,-100.00,WNW,303,3.0,8.0,99,-99.99,,,-99.99,,2013-02-10 07:31:00,
2013-02-09 23:41:00,26.0,26.0,-100.00,West,273,2.0,6.0,99,-99.99,,,-99.99,,2013-02-10 07:41:00,
2013-02-09 23:51:00,26.0,26.0,-100.00,NW,319,2.0,7.0,99,-99.99,,,-99.99,,2013-02-10 07:51:00,